WetterOnline ( https://www.wetteronline.de )

Wetter aktuell Ahlbeck

Aktuelles Wetter: Ueckermünde (7m)

6-stündlich | Neueste Meldungen
Ortszeit Temperatur Wetter
Fr, 12.07. 20:00 22.6° C bewölkt
Fr, 12.07. 14:00 23.2° C bedeckt
Fr, 12.07. 8:00 20.5° C bewölkt
Fr, 12.07. 2:00 17.3° C wolkig
Do, 11.07. 20:00 21.4° C Dunst
Do, 11.07. 14:00 21.1° C wolkenlos
Do, 11.07. 8:00 20.9° C bedeckt
Do, 11.07. 2:00 20.2° C Nebel
Ortszeit Temperatur Wetter
Sa, 13.07. 0:30 19.8° C bedeckt
Sa, 13.07. 0:20 19.8° C bedeckt
Sa, 13.07. 0:10 20.4° C bedeckt
Sa, 13.07. 0:00 20.1° C bewölkt
Fr, 12.07. 23:50 20.1° C bewölkt
Fr, 12.07. 23:40 20.5° C bewölkt
Fr, 12.07. 23:30 20.7° C wolkig
Fr, 12.07. 23:00 21.6° C Dunst
Fr, 12.07. 22:30 22.2° C Dunst
Fr, 12.07. 22:00 22.6° C Dunst
Fr, 12.07. 21:30 22.4° C bedeckt
Ortszeit Relative Feuchte Sichtweite
Fr, 12.07. 20:00 80% 40 km
Fr, 12.07. 14:00 76% 18 km
Fr, 12.07. 8:00 73% 25 km
Fr, 12.07. 2:00 89% 55 km
Do, 11.07. 20:00 77% 3.2 km
Do, 11.07. 14:00 75% >70 km
Do, 11.07. 8:00 93% 16 km
Do, 11.07. 2:00 97% 3.0 km
Ortszeit Relative Feuchte Sichtweite
Sa, 13.07. 0:30 86% 12 km
Sa, 13.07. 0:20 86% -
Sa, 13.07. 0:10 82% -
Sa, 13.07. 0:00 84% 10 km
Fr, 12.07. 23:50 84% -
Fr, 12.07. 23:40 81% -
Fr, 12.07. 23:30 80% 10 km
Fr, 12.07. 23:00 74% 6 km
Fr, 12.07. 22:30 71% 2.5 km
Fr, 12.07. 22:00 69% 0.4 km
Fr, 12.07. 21:30 75% 18 km
Ortszeit Niederschlagsmenge Niederschlagsart
Fr, 12.07. 20:00 0.1 l/m2 in 12 Std. Regen
Fr, 12.07. 14:00 0.0 l/m2 in 6 Std. -
Fr, 12.07. 8:00 0.1 l/m2 in 12 Std. -
Fr, 12.07. 2:00 0.1 l/m2 in 6 Std. -
Do, 11.07. 20:00 1 l/m2 in 12 Std. -
Do, 11.07. 14:00 1 l/m2 in 6 Std. Regen
Do, 11.07. 8:00 10 l/m2 in 12 Std. Regen
Do, 11.07. 2:00 0.3 l/m2 in 6 Std. Regen
Ortszeit Niederschlagsmenge Niederschlagsart
Sa, 13.07. 0:30 0.0 l/m2 in 30 Min -
Sa, 13.07. 0:20 keine Meldung -
Sa, 13.07. 0:10 keine Meldung -
Sa, 13.07. 0:00 0.0 l/m2 in 1 Std. -
Fr, 12.07. 23:50 keine Meldung -
Fr, 12.07. 23:40 keine Meldung -
Fr, 12.07. 23:30 0.0 l/m2 in 30 Min -
Fr, 12.07. 23:00 0.0 l/m2 in 1 Std. -
Fr, 12.07. 22:30 0.0 l/m2 in 30 Min -
Fr, 12.07. 22:00 0.0 l/m2 in 1 Std. -
Fr, 12.07. 21:30 0.0 l/m2 in 30 Min -
Ortszeit Stärke Spitze Richtung
km/h Bft. km/h Grad Sektor
Fr, 12.07. 20:00 14 3 29 70° O
Fr, 12.07. 14:00 13 3 22 70° O
Fr, 12.07. 8:00 6 1 19 150° SO
Fr, 12.07. 2:00 4 1 22 140° SO
Do, 11.07. 20:00 11 2 25 70° O
Do, 11.07. 14:00 13 3 43 310° NW
Do, 11.07. 8:00 6 1 17 140° SO
Do, 11.07. 2:00 2 1 15 130° SO
Ortszeit Stärke Spitze Richtung
km/h Bft. km/h Grad Sektor
Sa, 13.07. 0:30 6 1 6 150° SO
Sa, 13.07. 0:20 6 1 - 150° SO
Sa, 13.07. 0:10 4 1 - 110° O
Sa, 13.07. 0:00 4 1 11 190° S
Fr, 12.07. 23:50 4 1 - 190° S
Fr, 12.07. 23:40 4 1 - 150° SO
Fr, 12.07. 23:30 4 1 11 180° S
Fr, 12.07. 23:00 7 2 18 130° SO
Fr, 12.07. 22:30 9 2 19 120° SO
Fr, 12.07. 22:00 11 2 25 100° O
Fr, 12.07. 21:30 11 2 25 100° O
Ortszeit Untergrenze Bedeckung Gattung
total tief tief mittel hoch
Fr, 12.07. 20:00 1380 m 8/8 7/8 - - -
Fr, 12.07. 14:00 3000 m 8/8 8/8 - - -
Fr, 12.07. 8:00 600 m 7/8 7/8 - - -
Fr, 12.07. 2:00 2400 m 5/8 5/8 - - -
Do, 11.07. 20:00 4200 m 5/8 5/8 - - -
Do, 11.07. 14:00 - 0/8 0/8 - - -
Do, 11.07. 8:00 3300 m 8/8 8/8 - - -
Do, 11.07. 2:00 630 m 8/8 8/8 - - -
Ortszeit Bedeckungsgrad in Achtel und Wolkenuntergrenze
Sa, 13.07. 0:30 6(5700m) 8(6300m)
Sa, 13.07. 0:20 6(5700m) 8(6300m)
Sa, 13.07. 0:10 8
Sa, 13.07. 0:00 5(840m) 8(5700m)
Fr, 12.07. 23:50 5(840m) 8(5700m)
Fr, 12.07. 23:40 7
Fr, 12.07. 23:30 1(840m) 8(4800m)
Fr, 12.07. 23:00 1(1290m) 8(4800m)
Fr, 12.07. 22:30 8(4800m)
Fr, 12.07. 22:00 8(5400m)
Fr, 12.07. 21:30 8(5400m)
Ortszeit Luftdruck NN (hPa) Tendenz (hPa in 3 Std.)
Fr, 12.07. 20:00 1009 - 2,2
Fr, 12.07. 14:00 1013 - 1,4
Fr, 12.07. 8:00 1016 - 0,4
Fr, 12.07. 2:00 1016 0,0
Do, 11.07. 20:00 1016 + 0,1
Do, 11.07. 14:00 1016 + 1,4
Do, 11.07. 8:00 1015 - 0,1
Do, 11.07. 2:00 1015 + 0,1
Ortszeit Luftdruck NN (hPa) Tendenz (hPa in 3 Std.)
Sa, 13.07. 0:30 1008 + 0,1
Sa, 13.07. 0:20 1008 keine Meldung
Sa, 13.07. 0:10 1008 keine Meldung
Sa, 13.07. 0:00 1009 + 0,7
Fr, 12.07. 23:50 1009 keine Meldung
Fr, 12.07. 23:40 1009 keine Meldung
Fr, 12.07. 23:30 1009 - 0,1
Fr, 12.07. 23:00 1008 - 0,4
Fr, 12.07. 22:30 1008 - 0,2
Fr, 12.07. 22:00 1008 - 1,1
Fr, 12.07. 21:30 1008 - 1,6
Ortszeit Schneehöhe (cm)
Fr, 12.07. 20:00 0
Fr, 12.07. 14:00 0
Fr, 12.07. 8:00 0
Fr, 12.07. 2:00 0
Do, 11.07. 20:00 0
Do, 11.07. 14:00 0
Do, 11.07. 8:00 0
Do, 11.07. 2:00 0
Ortszeit Schneehöhe (cm)
Sa, 13.07. 0:30 0
Sa, 13.07. 0:20 0
Sa, 13.07. 0:10 -
Sa, 13.07. 0:00 0
Fr, 12.07. 23:50 0
Fr, 12.07. 23:40 -
Fr, 12.07. 23:30 0
Fr, 12.07. 23:00 0
Fr, 12.07. 22:30 0
Fr, 12.07. 22:00 0
Fr, 12.07. 21:30 0
Link zu dieser Seite / Seite empfehlen

Das Wetter in ...